sensor_id;sensor_type;location;lat;lon;timestamp;pressure;altitude;pressure_sealevel;temperature;humidity
55077;BME280;40971;44.702;11.030;2023-06-22T00:02:05;101600.75;;;22.55;85.34
55077;BME280;40971;44.702;11.030;2023-06-22T00:12:08;101620.09;;;22.32;87.65
55077;BME280;40971;44.702;11.030;2023-06-22T00:22:09;101618.69;;;22.54;86.82
55077;BME280;40971;44.702;11.030;2023-06-22T00:32:10;101593.88;;;22.59;85.94
55077;BME280;40971;44.702;11.030;2023-06-22T00:42:12;101595.44;;;22.48;87.62
55077;BME280;40971;44.702;11.030;2023-06-22T00:52:14;101604.34;;;22.42;85.31
55077;BME280;40971;44.702;11.030;2023-06-22T01:02:23;101619.31;;;22.25;86.49
55077;BME280;40971;44.702;11.030;2023-06-22T01:12:27;101614.31;;;22.35;87.63
55077;BME280;40971;44.702;11.030;2023-06-22T01:22:43;101606.91;;;22.31;87.78
55077;BME280;40971;44.702;11.030;2023-06-22T01:32:48;101633.47;;;22.39;87.33
55077;BME280;40971;44.702;11.030;2023-06-22T01:42:53;101615.28;;;22.41;85.40
55077;BME280;40971;44.702;11.030;2023-06-22T01:52:55;101615.09;;;22.11;86.88
55077;BME280;40971;44.702;11.030;2023-06-22T02:03:01;101612.78;;;21.83;89.08
55077;BME280;40971;44.702;11.030;2023-06-22T02:13:06;101606.00;;;21.81;89.36
55077;BME280;40971;44.702;11.030;2023-06-22T02:23:09;101624.78;;;21.74;89.65
55077;BME280;40971;44.702;11.030;2023-06-22T02:33:13;101617.19;;;21.71;90.44
55077;BME280;40971;44.702;11.030;2023-06-22T02:43:15;101603.44;;;21.99;89.21
55077;BME280;40971;44.702;11.030;2023-06-22T02:53:18;101627.84;;;22.16;88.64
55077;BME280;40971;44.702;11.030;2023-06-22T03:03:21;101635.66;;;22.17;87.28
55077;BME280;40971;44.702;11.030;2023-06-22T03:13:24;101650.31;;;22.15;86.75
55077;BME280;40971;44.702;11.030;2023-06-22T03:23:26;101650.13;;;22.10;86.74
55077;BME280;40971;44.702;11.030;2023-06-22T03:33:28;101677.09;;;22.15;86.74
55077;BME280;40971;44.702;11.030;2023-06-22T03:43:31;101683.97;;;22.04;86.68
55077;BME280;40971;44.702;11.030;2023-06-22T03:53:33;101679.69;;;21.96;86.92
55077;BME280;40971;44.702;11.030;2023-06-22T04:03:34;101682.44;;;21.77;88.30
55077;BME280;40971;44.702;11.030;2023-06-22T04:13:38;101673.53;;;21.89;87.99
55077;BME280;40971;44.702;11.030;2023-06-22T04:23:43;101668.22;;;22.14;87.39
55077;BME280;40971;44.702;11.030;2023-06-22T04:33:47;101659.47;;;22.56;87.10
55077;BME280;40971;44.702;11.030;2023-06-22T04:43:49;101667.47;;;22.88;86.12
55077;BME280;40971;44.702;11.030;2023-06-22T04:53:54;101680.06;;;23.30;84.97
55077;BME280;40971;44.702;11.030;2023-06-22T05:04:02;101682.75;;;23.66;83.25
55077;BME280;40971;44.702;11.030;2023-06-22T05:14:05;101653.47;;;23.95;79.46
55077;BME280;40971;44.702;11.030;2023-06-22T05:24:09;101678.94;;;24.33;76.96
55077;BME280;40971;44.702;11.030;2023-06-22T05:34:13;101681.47;;;24.70;74.07
55077;BME280;40971;44.702;11.030;2023-06-22T05:44:18;101678.44;;;25.13;73.05
55077;BME280;40971;44.702;11.030;2023-06-22T05:54:19;101664.97;;;25.48;72.42
55077;BME280;40971;44.702;11.030;2023-06-22T06:04:21;101665.56;;;25.78;71.10
55077;BME280;40971;44.702;11.030;2023-06-22T06:14:24;101664.47;;;25.90;69.93
55077;BME280;40971;44.702;11.030;2023-06-22T06:24:26;101677.84;;;26.02;69.18
55077;BME280;40971;44.702;11.030;2023-06-22T06:34:29;101684.56;;;25.99;69.55
55077;BME280;40971;44.702;11.030;2023-06-22T06:44:31;101688.50;;;26.09;70.46
55077;BME280;40971;44.702;11.030;2023-06-22T06:54:33;101686.28;;;26.34;69.65
55077;BME280;40971;44.702;11.030;2023-06-22T07:04:34;101672.13;;;27.10;65.07
55077;BME280;40971;44.702;11.030;2023-06-22T07:14:35;101680.88;;;27.39;64.06
55077;BME280;40971;44.702;11.030;2023-06-22T07:24:36;101646.41;;;28.53;59.96
55077;BME280;40971;44.702;11.030;2023-06-22T07:34:40;101659.06;;;29.98;56.81
55077;BME280;40971;44.702;11.030;2023-06-22T07:44:42;101639.47;;;31.02;53.95
55077;BME280;40971;44.702;11.030;2023-06-22T07:54:46;101643.41;;;31.94;48.26
55077;BME280;40971;44.702;11.030;2023-06-22T08:04:48;101628.50;;;32.82;47.69
55077;BME280;40971;44.702;11.030;2023-06-22T08:14:51;101636.13;;;32.80;46.25
55077;BME280;40971;44.702;11.030;2023-06-22T08:24:53;101632.28;;;33.53;45.85
55077;BME280;40971;44.702;11.030;2023-06-22T08:34:57;101638.94;;;33.65;43.26
55077;BME280;40971;44.702;11.030;2023-06-22T08:45:00;101614.78;;;33.35;43.92
55077;BME280;40971;44.702;11.030;2023-06-22T08:55:05;101620.28;;;33.72;42.92
55077;BME280;40971;44.702;11.030;2023-06-22T09:05:08;101616.16;;;34.26;42.65
55077;BME280;40971;44.702;11.030;2023-06-22T09:15:11;101631.34;;;35.05;41.26
55077;BME280;40971;44.702;11.030;2023-06-22T09:25:14;101614.22;;;35.40;39.85
55077;BME280;40971;44.702;11.030;2023-06-22T09:35:17;101605.66;;;35.91;39.51
55077;BME280;40971;44.702;11.030;2023-06-22T09:45:20;101611.69;;;34.62;40.50
55077;BME280;40971;44.702;11.030;2023-06-22T09:55:23;101592.13;;;34.41;39.41
55077;BME280;40971;44.702;11.030;2023-06-22T10:05:25;101578.63;;;35.54;35.91
55077;BME280;40971;44.702;11.030;2023-06-22T10:15:26;101566.06;;;34.76;40.24
55077;BME280;40971;44.702;11.030;2023-06-22T10:25:27;101575.50;;;35.11;39.82
55077;BME280;40971;44.702;11.030;2023-06-22T10:35:30;101561.78;;;35.25;38.53
55077;BME280;40971;44.702;11.030;2023-06-22T10:45:33;101557.81;;;34.22;39.94
55077;BME280;40971;44.702;11.030;2023-06-22T10:55:35;101551.19;;;34.82;39.86
55077;BME280;40971;44.702;11.030;2023-06-22T11:05:36;101541.97;;;35.55;37.09
55077;BME280;40971;44.702;11.030;2023-06-22T11:15:41;101545.28;;;34.48;36.23
55077;BME280;40971;44.702;11.030;2023-06-22T11:25:44;101521.63;;;34.84;37.46
55077;BME280;40971;44.702;11.030;2023-06-22T11:35:46;101489.00;;;36.43;36.46
55077;BME280;40971;44.702;11.030;2023-06-22T11:45:51;101480.50;;;35.39;39.60
55077;BME280;40971;44.702;11.030;2023-06-22T11:55:53;101465.63;;;35.09;39.08
55077;BME280;40971;44.702;11.030;2023-06-22T12:05:57;101448.38;;;34.86;40.74
55077;BME280;40971;44.702;11.030;2023-06-22T12:16:01;101420.34;;;36.00;41.46
55077;BME280;40971;44.702;11.030;2023-06-22T12:26:06;101400.59;;;36.03;35.91
55077;BME280;40971;44.702;11.030;2023-06-22T12:36:10;101401.72;;;36.59;35.50
55077;BME280;40971;44.702;11.030;2023-06-22T12:46:15;101389.63;;;36.60;36.09
55077;BME280;40971;44.702;11.030;2023-06-22T12:56:19;101375.38;;;36.49;33.13
55077;BME280;40971;44.702;11.030;2023-06-22T13:06:23;101385.25;;;36.50;33.57
55077;BME280;40971;44.702;11.030;2023-06-22T13:16:26;101378.81;;;37.23;33.42
55077;BME280;40971;44.702;11.030;2023-06-22T13:26:31;101370.22;;;36.31;32.61
55077;BME280;40971;44.702;11.030;2023-06-22T13:36:34;101372.69;;;36.58;32.95
55077;BME280;40971;44.702;11.030;2023-06-22T13:46:36;101371.00;;;38.77;28.86
55077;BME280;40971;44.702;11.030;2023-06-22T13:56:38;101340.78;;;37.60;31.43
55077;BME280;40971;44.702;11.030;2023-06-22T14:06:39;101348.34;;;36.65;31.03
55077;BME280;40971;44.702;11.030;2023-06-22T14:16:41;101337.56;;;36.60;31.64
55077;BME280;40971;44.702;11.030;2023-06-22T14:26:42;101317.03;;;36.23;39.40
55077;BME280;40971;44.702;11.030;2023-06-22T14:36:43;101328.41;;;34.49;37.85
55077;BME280;40971;44.702;11.030;2023-06-22T14:46:47;101320.22;;;34.13;38.57
55077;BME280;40971;44.702;11.030;2023-06-22T14:56:48;101308.78;;;34.61;38.93
55077;BME280;40971;44.702;11.030;2023-06-22T15:06:53;101323.25;;;35.28;43.37
55077;BME280;40971;44.702;11.030;2023-06-22T15:16:56;101322.03;;;34.89;46.34
55077;BME280;40971;44.702;11.030;2023-06-22T15:26:57;101311.59;;;34.69;42.29
55077;BME280;40971;44.702;11.030;2023-06-22T15:36:59;101300.78;;;33.87;47.13
55077;BME280;40971;44.702;11.030;2023-06-22T15:47:01;101288.03;;;33.42;50.11
55077;BME280;40971;44.702;11.030;2023-06-22T15:57:03;101284.63;;;33.50;45.67
55077;BME280;40971;44.702;11.030;2023-06-22T16:07:07;101252.72;;;33.05;50.21
55077;BME280;40971;44.702;11.030;2023-06-22T16:17:11;101238.84;;;32.88;49.79
55077;BME280;40971;44.702;11.030;2023-06-22T16:27:15;101251.88;;;32.91;56.98
55077;BME280;40971;44.702;11.030;2023-06-22T16:37:18;101248.81;;;32.78;51.23
55077;BME280;40971;44.702;11.030;2023-06-22T16:47:20;101234.34;;;32.97;43.44
55077;BME280;40971;44.702;11.030;2023-06-22T16:57:21;101223.69;;;32.81;44.22
55077;BME280;40971;44.702;11.030;2023-06-22T17:07:26;101209.19;;;32.35;46.26
55077;BME280;40971;44.702;11.030;2023-06-22T17:17:30;101240.81;;;31.94;49.26
55077;BME280;40971;44.702;11.030;2023-06-22T17:27:33;101251.44;;;31.90;51.64
55077;BME280;40971;44.702;11.030;2023-06-22T17:37:56;101242.38;;;31.52;52.30
55077;BME280;40971;44.702;11.030;2023-06-22T17:47:57;101237.75;;;31.00;55.59
55077;BME280;40971;44.702;11.030;2023-06-22T17:57:59;101218.97;;;31.04;53.55
55077;BME280;40971;44.702;11.030;2023-06-22T18:08:04;101202.13;;;30.73;54.65
55077;BME280;40971;44.702;11.030;2023-06-22T18:18:08;101227.41;;;30.69;53.39
55077;BME280;40971;44.702;11.030;2023-06-22T18:28:12;101231.56;;;30.17;56.45
55077;BME280;40971;44.702;11.030;2023-06-22T18:38:16;101218.63;;;29.99;56.62
55077;BME280;40971;44.702;11.030;2023-06-22T18:48:23;101225.84;;;29.60;57.95
55077;BME280;40971;44.702;11.030;2023-06-22T18:58:28;101234.06;;;29.19;59.88
55077;BME280;40971;44.702;11.030;2023-06-22T19:19:15;101240.94;;;27.94;67.92
55077;BME280;40971;44.702;11.030;2023-06-22T19:29:18;101243.25;;;27.65;69.14
55077;BME280;40971;44.702;11.030;2023-06-22T19:39:19;101255.47;;;27.36;66.94
55077;BME280;40971;44.702;11.030;2023-06-22T19:49:22;101242.59;;;27.06;68.25
55077;BME280;40971;44.702;11.030;2023-06-22T19:59:23;101213.41;;;27.03;67.32
55077;BME280;40971;44.702;11.030;2023-06-22T20:09:26;101225.50;;;26.96;66.91
55077;BME280;40971;44.702;11.030;2023-06-22T20:19:36;101238.94;;;26.59;69.56
55077;BME280;40971;44.702;11.030;2023-06-22T20:29:39;101226.63;;;26.15;70.82
55077;BME280;40971;44.702;11.030;2023-06-22T20:39:43;101227.94;;;26.12;71.53
55077;BME280;40971;44.702;11.030;2023-06-22T20:49:45;101253.19;;;25.84;73.34
55077;BME280;40971;44.702;11.030;2023-06-22T20:59:48;101248.53;;;25.58;74.67
55077;BME280;40971;44.702;11.030;2023-06-22T21:09:51;101252.91;;;25.26;76.58
55077;BME280;40971;44.702;11.030;2023-06-22T21:19:56;101244.84;;;24.93;78.43
55077;BME280;40971;44.702;11.030;2023-06-22T21:30:20;101221.63;;;25.03;78.63
55077;BME280;40971;44.702;11.030;2023-06-22T21:40:21;101232.00;;;24.66;80.65
55077;BME280;40971;44.702;11.030;2023-06-22T21:50:25;101245.31;;;24.28;80.28
55077;BME280;40971;44.702;11.030;2023-06-22T22:00:26;101252.94;;;24.19;82.19
55077;BME280;40971;44.702;11.030;2023-06-22T22:10:29;101225.00;;;24.20;82.41
55077;BME280;40971;44.702;11.030;2023-06-22T22:20:31;101198.16;;;24.09;81.99
55077;BME280;40971;44.702;11.030;2023-06-22T22:30:32;101207.19;;;24.03;82.87
55077;BME280;40971;44.702;11.030;2023-06-22T22:40:33;101158.22;;;24.12;82.19
55077;BME280;40971;44.702;11.030;2023-06-22T22:50:36;101142.38;;;24.44;80.53
55077;BME280;40971;44.702;11.030;2023-06-22T23:00:39;101136.72;;;24.12;82.25
55077;BME280;40971;44.702;11.030;2023-06-22T23:10:40;101131.63;;;24.27;79.99
55077;BME280;40971;44.702;11.030;2023-06-22T23:20:43;101118.09;;;24.39;76.84
55077;BME280;40971;44.702;11.030;2023-06-22T23:30:45;101074.63;;;24.42;72.71
55077;BME280;40971;44.702;11.030;2023-06-22T23:40:47;101061.59;;;24.34;70.98
55077;BME280;40971;44.702;11.030;2023-06-22T23:50:50;101130.78;;;24.10;74.69
